Warning: Javascript must be enabled to use all the features on this page!


Page Loading - Please Wait...

Click to hideNews Bulletins

Peak Streamflow for the Nation

USGS 01514000 OWEGO CREEK NEAR OWEGO NY

Tioga County, New York
Hydrologic Unit Code 02050103
Latitude  42°07'37.6", Longitude  76°16'12.4" NAD83
Drainage area 185  square miles
Gage datum 819.43 feet above NAVD88
Output formats
Table
Graph
Tab-separated file
peakfq (watstore) format
Reselect output format
Water
Year
Date Gage
Height
(feet)
Stream-
flow
(cfs)
1930 1930-03-08 5.823 3,470
1931 1931-05-26 5.173 3,060
1932 1932-04-03 5.653 3,820
1933 1932-10-06 5.633 3,790
1934 1934-04-01 6.753 5,690
1935 1935-07-08 10.503 23,500
1936 1936-03-18 9.003 12,200
1937 1937-08-27 6.003 3,710
1938 1937-10-23 6.543 4,560
1939 1939-02-20 8.003 7,230
1940 1940-03-31 8.003 8,730
1941 1941-04-05 6.103 6,040
1942 1942-03-09 6.523 6,750
1943 1942-12-30 7.903 10,600
1944 1944-03-17 5.993 5,740
1945 1945-09-19 5.563 4,330
1946 1946-05-28 7.553 7,290
1947 1947-04-05 7.733 6,530
1948 1948-03-22 8.083 7,150
1949 1948-12-30 6.073 4,010
1950 1950-03-28 8.473 7,890
1951 1950-11-26 7.923 6,870
1952 1952-03-11 7.233 4,990
1953 1952-12-11 7.413 5,280
1954 1954-05-04 7.543 4,900
1955 1955-03-01 7.723 5,990
1956 1955-10-16 9.093 10,200
1957 1957-01-23 7.063 4,790
1958 1958-04-07 7.943 6,500
1959 1959-01-22 8.453 7,850
1960 1960-03-31 8.633 8,400
1961 1961-02-26 9.333 11,200
1962 1962-03-31 6.733 4,480
1963 1962-10-12 10.396 11,500
1964 1964-03-05 11.14 15,300
1965 1965-02-12 5.25 2,480
1966 1966-02-14 7.46 4,590
1967 1967-03-29 5.82 3,000
1968 1968-03-23 7.40 4,520
1969 1968-11-18 7.56 4,710
1970 1970-04-02 7.49 5,270
1971 1971-03-15 6.60 4,100
1972 1972-06-23 10.15 10,6009
1973 1972-11-08 7.64 5,450
1974 1974-02-22 5.70 3,300
1975 1975-09-26 10.94 14,200
1976 1976-07-12 8.08 6,340
1977 1976-10-09 8.51 6,960
1978 1977-10-17 7.62 5,700
1979 1979-03-06 10.34 11,500
1980 1980-03-22 7.78 5,910
1981 1981-02-20 6.71 4,540
1982 1981-10-28 8.75 7,360
1983 1983-04-16 7.12 5,050
1984 1983-12-14 10.48 12,100
1985 1985-03-12 5.53 3,200
1986 1986-03-15 8.88 7,590
1987 1986-11-27 9.28 8,380
1988 1988-05-20 5.78 3,450
1989 1989-05-11 6.78 4,620
1990 1989-10-20 4.98 2,630
1991 1990-10-24 10.61 12,700
1992 1992-03-27 6.76 4,870
1993 1993-04-11 9.29 8,400
1994 1994-08-18 7.08 5,230
1995 1994-12-05 5.01 2,990
1996 1996-01-20   13,2002
1997 1996-12-02 9.69 9,270
1998 1998-01-08 8.44 6,880
1999 1999-01-24 6.48 4,560
2000 2000-02-28 8.76 7,380
2001 2001-06-23 6.53 4,620
2002 2002-06-16 5.79 3,830
2003 2003-03-21 6.08 4,120
2004 2004-09-18 8.51 6,960
2005 2005-04-03 8.54 7,150
2006 2006-06-28 9.25 8,320
2007 2006-11-16 7.99 6,300
2008 2007-12-24 7.06 5,150
2009 2009-03-09 6.73 4,760
2010 2010-01-25 8.85 7,360
2011 2011-09-08 13.05 17,6009
2012 2012-01-27 5.15 2,750R
2013 2013-07-01 7.79 6,730R
2014 2014-03-30 7.83 6,800R
2015 2015-06-15 8.31 7,750R
2016 2016-02-25 6.09 3,950
2017 2017-04-21 6.86 5,630
2018 2018-09-18 10.57 13,200R
2019 2019-05-13 5.49 3,000
2020 2020-05-01 7.502 6,200
?
  Peak Gage-Height Qualification Codes.
?
  Peak Streamflow Qualification Codes.